sensor_id;sensor_type;location;lat;lon;timestamp;P1;durP1;ratioP1;P2;durP2;ratioP2
58242;SDS011;50118;53.232;8.252;2024-02-21T00:01:21;36.30;;;18.52;;
58242;SDS011;50118;53.232;8.252;2024-02-21T00:03:47;34.65;;;18.13;;
58242;SDS011;50118;53.232;8.252;2024-02-21T00:06:13;31.00;;;18.10;;
58242;SDS011;50118;53.232;8.252;2024-02-21T00:08:38;29.38;;;18.23;;
58242;SDS011;50118;53.232;8.252;2024-02-21T00:11:04;40.03;;;18.73;;
58242;SDS011;50118;53.232;8.252;2024-02-21T00:13:30;36.08;;;19.77;;
58242;SDS011;50118;53.232;8.252;2024-02-21T00:15:55;36.67;;;19.95;;
58242;SDS011;50118;53.232;8.252;2024-02-21T00:18:21;38.42;;;19.55;;
58242;SDS011;50118;53.232;8.252;2024-02-21T00:20:46;37.85;;;21.25;;
58242;SDS011;50118;53.232;8.252;2024-02-21T00:23:12;39.20;;;21.38;;
58242;SDS011;50118;53.232;8.252;2024-02-21T00:25:38;40.55;;;21.95;;
58242;SDS011;50118;53.232;8.252;2024-02-21T00:28:03;38.75;;;21.50;;
58242;SDS011;50118;53.232;8.252;2024-02-21T00:30:30;40.35;;;21.95;;
58242;SDS011;50118;53.232;8.252;2024-02-21T00:32:56;43.15;;;22.95;;
58242;SDS011;50118;53.232;8.252;2024-02-21T00:35:22;39.72;;;22.15;;
58242;SDS011;50118;53.232;8.252;2024-02-21T00:37:47;36.95;;;22.20;;
58242;SDS011;50118;53.232;8.252;2024-02-21T00:40:13;41.33;;;23.42;;
58242;SDS011;50118;53.232;8.252;2024-02-21T00:42:45;39.38;;;22.23;;
58242;SDS011;50118;53.232;8.252;2024-02-21T00:45:13;40.50;;;22.45;;
58242;SDS011;50118;53.232;8.252;2024-02-21T00:47:39;39.67;;;23.38;;
58242;SDS011;50118;53.232;8.252;2024-02-21T00:50:05;41.00;;;23.20;;
58242;SDS011;50118;53.232;8.252;2024-02-21T00:52:32;37.53;;;21.48;;
58242;SDS011;50118;53.232;8.252;2024-02-21T00:54:58;37.80;;;20.85;;
58242;SDS011;50118;53.232;8.252;2024-02-21T00:57:25;36.03;;;20.83;;
58242;SDS011;50118;53.232;8.252;2024-02-21T00:59:51;38.10;;;21.70;;
58242;SDS011;50118;53.232;8.252;2024-02-21T01:02:16;38.38;;;21.08;;
58242;SDS011;50118;53.232;8.252;2024-02-21T01:04:42;35.15;;;20.58;;
58242;SDS011;50118;53.232;8.252;2024-02-21T01:07:08;36.88;;;20.95;;
58242;SDS011;50118;53.232;8.252;2024-02-21T01:09:33;37.38;;;21.15;;
58242;SDS011;50118;53.232;8.252;2024-02-21T01:12:02;30.75;;;19.85;;
58242;SDS011;50118;53.232;8.252;2024-02-21T01:14:28;39.42;;;20.95;;
58242;SDS011;50118;53.232;8.252;2024-02-21T01:16:53;37.22;;;20.20;;
58242;SDS011;50118;53.232;8.252;2024-02-21T01:19:19;34.58;;;19.90;;
58242;SDS011;50118;53.232;8.252;2024-02-21T01:21:44;35.35;;;19.38;;
58242;SDS011;50118;53.232;8.252;2024-02-21T01:24:10;33.90;;;20.23;;
58242;SDS011;50118;53.232;8.252;2024-02-21T01:26:35;30.25;;;18.00;;
58242;SDS011;50118;53.232;8.252;2024-02-21T01:29:00;34.20;;;18.88;;
58242;SDS011;50118;53.232;8.252;2024-02-21T01:31:26;32.45;;;18.88;;
58242;SDS011;50118;53.232;8.252;2024-02-21T01:33:51;33.95;;;18.98;;
58242;SDS011;50118;53.232;8.252;2024-02-21T01:36:17;32.60;;;17.73;;
58242;SDS011;50118;53.232;8.252;2024-02-21T01:38:43;30.88;;;17.38;;
58242;SDS011;50118;53.232;8.252;2024-02-21T01:41:09;32.78;;;18.50;;
58242;SDS011;50118;53.232;8.252;2024-02-21T01:43:34;28.27;;;17.88;;
58242;SDS011;50118;53.232;8.252;2024-02-21T01:46:00;30.38;;;17.63;;
58242;SDS011;50118;53.232;8.252;2024-02-21T01:48:26;33.10;;;17.65;;
58242;SDS011;50118;53.232;8.252;2024-02-21T01:50:53;32.38;;;18.10;;
58242;SDS011;50118;53.232;8.252;2024-02-21T01:53:20;32.03;;;18.50;;
58242;SDS011;50118;53.232;8.252;2024-02-21T01:55:48;30.08;;;17.00;;
58242;SDS011;50118;53.232;8.252;2024-02-21T01:58:14;27.75;;;18.10;;
58242;SDS011;50118;53.232;8.252;2024-02-21T02:00:41;28.30;;;17.13;;
58242;SDS011;50118;53.232;8.252;2024-02-21T02:03:11;29.02;;;16.98;;
58242;SDS011;50118;53.232;8.252;2024-02-21T02:05:45;30.73;;;16.95;;
58242;SDS011;50118;53.232;8.252;2024-02-21T02:08:11;30.58;;;17.10;;
58242;SDS011;50118;53.232;8.252;2024-02-21T02:10:44;32.22;;;17.83;;
58242;SDS011;50118;53.232;8.252;2024-02-21T02:13:13;34.08;;;17.98;;
58242;SDS011;50118;53.232;8.252;2024-02-21T02:18:08;29.98;;;16.95;;
58242;SDS011;50118;53.232;8.252;2024-02-21T02:20:35;28.95;;;16.95;;
58242;SDS011;50118;53.232;8.252;2024-02-21T02:23:03;32.92;;;16.75;;
58242;SDS011;50118;53.232;8.252;2024-02-21T02:25:37;31.98;;;16.85;;
58242;SDS011;50118;53.232;8.252;2024-02-21T02:28:04;26.50;;;16.38;;
58242;SDS011;50118;53.232;8.252;2024-02-21T02:30:34;28.25;;;16.88;;
58242;SDS011;50118;53.232;8.252;2024-02-21T02:33:04;30.88;;;16.90;;
58242;SDS011;50118;53.232;8.252;2024-02-21T02:35:30;28.45;;;15.98;;
58242;SDS011;50118;53.232;8.252;2024-02-21T02:37:56;29.73;;;16.40;;
58242;SDS011;50118;53.232;8.252;2024-02-21T02:40:22;24.88;;;16.70;;
58242;SDS011;50118;53.232;8.252;2024-02-21T02:42:48;29.30;;;16.17;;
58242;SDS011;50118;53.232;8.252;2024-02-21T02:45:15;29.83;;;15.18;;
58242;SDS011;50118;53.232;8.252;2024-02-21T02:47:41;34.42;;;16.83;;
58242;SDS011;50118;53.232;8.252;2024-02-21T02:50:07;35.83;;;16.88;;
58242;SDS011;50118;53.232;8.252;2024-02-21T02:52:33;31.33;;;15.73;;
58242;SDS011;50118;53.232;8.252;2024-02-21T02:54:58;34.13;;;16.45;;
58242;SDS011;50118;53.232;8.252;2024-02-21T02:57:24;29.20;;;15.25;;
58242;SDS011;50118;53.232;8.252;2024-02-21T02:59:50;33.03;;;15.50;;
58242;SDS011;50118;53.232;8.252;2024-02-21T03:02:16;32.50;;;16.30;;
58242;SDS011;50118;53.232;8.252;2024-02-21T03:04:45;31.27;;;17.25;;
58242;SDS011;50118;53.232;8.252;2024-02-21T03:07:11;35.55;;;16.63;;
58242;SDS011;50118;53.232;8.252;2024-02-21T03:09:37;35.92;;;17.25;;
58242;SDS011;50118;53.232;8.252;2024-02-21T03:12:03;33.78;;;17.20;;
58242;SDS011;50118;53.232;8.252;2024-02-21T03:14:29;31.33;;;17.58;;
58242;SDS011;50118;53.232;8.252;2024-02-21T03:16:58;37.00;;;17.02;;
58242;SDS011;50118;53.232;8.252;2024-02-21T03:19:24;33.55;;;18.38;;
58242;SDS011;50118;53.232;8.252;2024-02-21T03:21:50;35.03;;;18.40;;
58242;SDS011;50118;53.232;8.252;2024-02-21T03:24:16;33.83;;;18.08;;
58242;SDS011;50118;53.232;8.252;2024-02-21T03:26:42;33.80;;;18.42;;
58242;SDS011;50118;53.232;8.252;2024-02-21T03:29:07;39.05;;;19.48;;
58242;SDS011;50118;53.232;8.252;2024-02-21T03:31:36;39.22;;;19.23;;
58242;SDS011;50118;53.232;8.252;2024-02-21T03:34:02;35.85;;;18.63;;
58242;SDS011;50118;53.232;8.252;2024-02-21T03:36:28;33.75;;;18.70;;
58242;SDS011;50118;53.232;8.252;2024-02-21T03:38:54;39.83;;;20.02;;
58242;SDS011;50118;53.232;8.252;2024-02-21T03:41:20;36.28;;;18.85;;
58242;SDS011;50118;53.232;8.252;2024-02-21T03:43:46;42.08;;;19.42;;
58242;SDS011;50118;53.232;8.252;2024-02-21T03:46:11;35.85;;;18.65;;
58242;SDS011;50118;53.232;8.252;2024-02-21T03:48:36;37.90;;;18.73;;
58242;SDS011;50118;53.232;8.252;2024-02-21T03:51:02;33.13;;;17.58;;
58242;SDS011;50118;53.232;8.252;2024-02-21T03:53:28;37.05;;;18.70;;
58242;SDS011;50118;53.232;8.252;2024-02-21T03:55:53;37.47;;;18.70;;
58242;SDS011;50118;53.232;8.252;2024-02-21T03:58:19;33.13;;;17.35;;
58242;SDS011;50118;53.232;8.252;2024-02-21T04:00:45;34.92;;;17.27;;
58242;SDS011;50118;53.232;8.252;2024-02-21T04:03:11;35.33;;;18.02;;
58242;SDS011;50118;53.232;8.252;2024-02-21T04:05:36;28.83;;;17.30;;
58242;SDS011;50118;53.232;8.252;2024-02-21T04:08:05;37.42;;;17.13;;
58242;SDS011;50118;53.232;8.252;2024-02-21T04:10:31;33.10;;;16.88;;
58242;SDS011;50118;53.232;8.252;2024-02-21T04:12:57;34.00;;;17.90;;
58242;SDS011;50118;53.232;8.252;2024-02-21T04:15:22;30.77;;;15.75;;
58242;SDS011;50118;53.232;8.252;2024-02-21T04:17:48;30.23;;;16.38;;
58242;SDS011;50118;53.232;8.252;2024-02-21T04:20:14;28.85;;;14.90;;
58242;SDS011;50118;53.232;8.252;2024-02-21T04:22:41;27.75;;;14.85;;
58242;SDS011;50118;53.232;8.252;2024-02-21T04:25:12;29.57;;;14.90;;
58242;SDS011;50118;53.232;8.252;2024-02-21T04:27:38;29.08;;;15.38;;
58242;SDS011;50118;53.232;8.252;2024-02-21T04:30:04;25.77;;;14.23;;
58242;SDS011;50118;53.232;8.252;2024-02-21T04:32:30;26.05;;;14.27;;
58242;SDS011;50118;53.232;8.252;2024-02-21T04:34:55;27.45;;;14.80;;
58242;SDS011;50118;53.232;8.252;2024-02-21T04:37:21;27.52;;;14.93;;
58242;SDS011;50118;53.232;8.252;2024-02-21T04:39:47;26.60;;;14.40;;
58242;SDS011;50118;53.232;8.252;2024-02-21T04:42:13;24.27;;;14.73;;
58242;SDS011;50118;53.232;8.252;2024-02-21T04:44:39;28.50;;;14.50;;
58242;SDS011;50118;53.232;8.252;2024-02-21T04:47:04;25.25;;;14.00;;
58242;SDS011;50118;53.232;8.252;2024-02-21T04:49:33;26.58;;;14.52;;
58242;SDS011;50118;53.232;8.252;2024-02-21T04:51:59;25.88;;;14.30;;
58242;SDS011;50118;53.232;8.252;2024-02-21T04:54:25;24.98;;;12.85;;
58242;SDS011;50118;53.232;8.252;2024-02-21T04:56:51;23.20;;;13.35;;
58242;SDS011;50118;53.232;8.252;2024-02-21T04:59:16;23.92;;;14.05;;
58242;SDS011;50118;53.232;8.252;2024-02-21T05:01:42;24.25;;;13.93;;
58242;SDS011;50118;53.232;8.252;2024-02-21T05:04:07;25.30;;;13.52;;
58242;SDS011;50118;53.232;8.252;2024-02-21T05:06:37;26.42;;;13.82;;
58242;SDS011;50118;53.232;8.252;2024-02-21T05:09:04;25.73;;;12.60;;
58242;SDS011;50118;53.232;8.252;2024-02-21T05:11:30;22.85;;;13.55;;
58242;SDS011;50118;53.232;8.252;2024-02-21T05:13:55;21.02;;;12.23;;
58242;SDS011;50118;53.232;8.252;2024-02-21T05:16:21;18.15;;;11.73;;
58242;SDS011;50118;53.232;8.252;2024-02-21T05:18:46;22.60;;;12.18;;
58242;SDS011;50118;53.232;8.252;2024-02-21T05:21:12;24.85;;;12.32;;
58242;SDS011;50118;53.232;8.252;2024-02-21T05:23:38;22.23;;;12.65;;
58242;SDS011;50118;53.232;8.252;2024-02-21T05:26:04;19.25;;;11.63;;
58242;SDS011;50118;53.232;8.252;2024-02-21T05:28:30;21.35;;;12.10;;
58242;SDS011;50118;53.232;8.252;2024-02-21T05:30:56;18.95;;;11.32;;
58242;SDS011;50118;53.232;8.252;2024-02-21T05:33:21;20.73;;;11.23;;
58242;SDS011;50118;53.232;8.252;2024-02-21T05:35:47;20.52;;;11.75;;
58242;SDS011;50118;53.232;8.252;2024-02-21T05:38:16;18.42;;;10.82;;
58242;SDS011;50118;53.232;8.252;2024-02-21T05:40:42;18.15;;;10.95;;
58242;SDS011;50118;53.232;8.252;2024-02-21T05:43:07;18.38;;;10.27;;
58242;SDS011;50118;53.232;8.252;2024-02-21T05:45:34;19.67;;;10.75;;
58242;SDS011;50118;53.232;8.252;2024-02-21T05:47:59;19.77;;;11.40;;
58242;SDS011;50118;53.232;8.252;2024-02-21T05:50:25;20.02;;;11.70;;
58242;SDS011;50118;53.232;8.252;2024-02-21T05:52:52;19.90;;;11.57;;
58242;SDS011;50118;53.232;8.252;2024-02-21T05:55:18;19.58;;;11.18;;
58242;SDS011;50118;53.232;8.252;2024-02-21T05:57:43;20.45;;;11.25;;
58242;SDS011;50118;53.232;8.252;2024-02-21T06:00:09;18.45;;;10.75;;
58242;SDS011;50118;53.232;8.252;2024-02-21T06:02:35;16.98;;;9.95;;
58242;SDS011;50118;53.232;8.252;2024-02-21T06:05:00;20.80;;;10.80;;
58242;SDS011;50118;53.232;8.252;2024-02-21T06:07:26;20.92;;;11.45;;
58242;SDS011;50118;53.232;8.252;2024-02-21T06:09:51;18.17;;;10.98;;
58242;SDS011;50118;53.232;8.252;2024-02-21T06:12:17;19.27;;;10.82;;
58242;SDS011;50118;53.232;8.252;2024-02-21T06:14:42;18.40;;;11.02;;
58242;SDS011;50118;53.232;8.252;2024-02-21T06:17:08;18.73;;;9.93;;
58242;SDS011;50118;53.232;8.252;2024-02-21T06:19:33;17.23;;;11.02;;
58242;SDS011;50118;53.232;8.252;2024-02-21T06:21:59;16.52;;;10.18;;
58242;SDS011;50118;53.232;8.252;2024-02-21T06:24:24;21.08;;;10.68;;
58242;SDS011;50118;53.232;8.252;2024-02-21T06:26:50;18.35;;;10.95;;
58242;SDS011;50118;53.232;8.252;2024-02-21T06:29:15;22.23;;;11.55;;
58242;SDS011;50118;53.232;8.252;2024-02-21T06:31:41;18.55;;;10.75;;
58242;SDS011;50118;53.232;8.252;2024-02-21T06:34:06;19.88;;;11.20;;
58242;SDS011;50118;53.232;8.252;2024-02-21T06:36:31;18.10;;;11.13;;
58242;SDS011;50118;53.232;8.252;2024-02-21T06:38:58;19.67;;;11.20;;
58242;SDS011;50118;53.232;8.252;2024-02-21T06:41:24;19.25;;;11.15;;
58242;SDS011;50118;53.232;8.252;2024-02-21T06:43:50;17.95;;;10.77;;
58242;SDS011;50118;53.232;8.252;2024-02-21T06:46:23;18.90;;;11.05;;
58242;SDS011;50118;53.232;8.252;2024-02-21T06:48:49;18.05;;;10.70;;
58242;SDS011;50118;53.232;8.252;2024-02-21T06:51:15;19.17;;;11.23;;
58242;SDS011;50118;53.232;8.252;2024-02-21T06:53:41;18.38;;;10.52;;
58242;SDS011;50118;53.232;8.252;2024-02-21T06:56:07;17.88;;;10.90;;
58242;SDS011;50118;53.232;8.252;2024-02-21T06:58:33;18.08;;;10.65;;
58242;SDS011;50118;53.232;8.252;2024-02-21T07:00:58;19.00;;;10.90;;
58242;SDS011;50118;53.232;8.252;2024-02-21T07:03:24;20.55;;;11.05;;
58242;SDS011;50118;53.232;8.252;2024-02-21T07:05:49;21.00;;;11.07;;
58242;SDS011;50118;53.232;8.252;2024-02-21T07:08:15;19.83;;;11.13;;
58242;SDS011;50118;53.232;8.252;2024-02-21T07:10:41;19.85;;;11.50;;
58242;SDS011;50118;53.232;8.252;2024-02-21T07:13:06;27.30;;;12.40;;
58242;SDS011;50118;53.232;8.252;2024-02-21T07:15:32;26.23;;;12.43;;
58242;SDS011;50118;53.232;8.252;2024-02-21T07:17:58;22.95;;;13.05;;
58242;SDS011;50118;53.232;8.252;2024-02-21T07:20:24;22.73;;;13.23;;
58242;SDS011;50118;53.232;8.252;2024-02-21T07:22:50;20.48;;;11.82;;
58242;SDS011;50118;53.232;8.252;2024-02-21T07:25:21;26.45;;;13.73;;
58242;SDS011;50118;53.232;8.252;2024-02-21T07:27:46;25.45;;;13.00;;
58242;SDS011;50118;53.232;8.252;2024-02-21T07:30:12;28.60;;;13.48;;
58242;SDS011;50118;53.232;8.252;2024-02-21T07:32:37;20.40;;;11.63;;
58242;SDS011;50118;53.232;8.252;2024-02-21T07:35:03;25.63;;;12.82;;
58242;SDS011;50118;53.232;8.252;2024-02-21T07:37:30;23.70;;;13.25;;
58242;SDS011;50118;53.232;8.252;2024-02-21T07:39:56;21.33;;;12.82;;
58242;SDS011;50118;53.232;8.252;2024-02-21T07:42:21;27.73;;;14.35;;
58242;SDS011;50118;53.232;8.252;2024-02-21T07:44:53;26.25;;;13.82;;
58242;SDS011;50118;53.232;8.252;2024-02-21T07:47:27;25.00;;;13.50;;
58242;SDS011;50118;53.232;8.252;2024-02-21T07:49:55;23.80;;;13.10;;
58242;SDS011;50118;53.232;8.252;2024-02-21T07:52:24;27.80;;;13.90;;
58242;SDS011;50118;53.232;8.252;2024-02-21T07:54:50;27.13;;;14.60;;
58242;SDS011;50118;53.232;8.252;2024-02-21T07:57:18;29.98;;;15.75;;
58242;SDS011;50118;53.232;8.252;2024-02-21T07:59:44;34.40;;;16.77;;
58242;SDS011;50118;53.232;8.252;2024-02-21T08:02:09;32.97;;;16.42;;
58242;SDS011;50118;53.232;8.252;2024-02-21T08:04:35;31.50;;;16.88;;
58242;SDS011;50118;53.232;8.252;2024-02-21T08:07:00;33.10;;;16.85;;
58242;SDS011;50118;53.232;8.252;2024-02-21T08:09:27;32.47;;;16.23;;
58242;SDS011;50118;53.232;8.252;2024-02-21T08:11:56;36.05;;;17.15;;
58242;SDS011;50118;53.232;8.252;2024-02-21T08:14:25;39.20;;;17.60;;
58242;SDS011;50118;53.232;8.252;2024-02-21T08:16:50;33.22;;;17.30;;
58242;SDS011;50118;53.232;8.252;2024-02-21T08:19:18;36.42;;;17.42;;
58242;SDS011;50118;53.232;8.252;2024-02-21T08:21:44;33.88;;;16.13;;
58242;SDS011;50118;53.232;8.252;2024-02-21T08:24:13;32.53;;;17.70;;
58242;SDS011;50118;53.232;8.252;2024-02-21T08:26:49;39.10;;;17.63;;
58242;SDS011;50118;53.232;8.252;2024-02-21T08:29:14;46.00;;;18.00;;
58242;SDS011;50118;53.232;8.252;2024-02-21T08:31:40;34.47;;;16.63;;
58242;SDS011;50118;53.232;8.252;2024-02-21T08:34:05;32.53;;;16.50;;
58242;SDS011;50118;53.232;8.252;2024-02-21T08:36:31;34.42;;;17.15;;
58242;SDS011;50118;53.232;8.252;2024-02-21T08:38:58;36.22;;;16.88;;
58242;SDS011;50118;53.232;8.252;2024-02-21T08:41:23;34.25;;;17.38;;
58242;SDS011;50118;53.232;8.252;2024-02-21T08:43:52;33.78;;;17.77;;
58242;SDS011;50118;53.232;8.252;2024-02-21T08:46:21;35.13;;;17.65;;
58242;SDS011;50118;53.232;8.252;2024-02-21T08:48:49;36.10;;;17.40;;
58242;SDS011;50118;53.232;8.252;2024-02-21T08:51:17;40.28;;;17.50;;
58242;SDS011;50118;53.232;8.252;2024-02-21T08:53:46;37.85;;;18.88;;
58242;SDS011;50118;53.232;8.252;2024-02-21T08:56:13;38.15;;;18.23;;
58242;SDS011;50118;53.232;8.252;2024-02-21T08:58:41;37.88;;;17.35;;
58242;SDS011;50118;53.232;8.252;2024-02-21T09:01:07;35.85;;;17.55;;
58242;SDS011;50118;53.232;8.252;2024-02-21T09:03:42;31.45;;;17.17;;
58242;SDS011;50118;53.232;8.252;2024-02-21T09:06:09;33.40;;;16.92;;
58242;SDS011;50118;53.232;8.252;2024-02-21T09:08:35;33.35;;;16.38;;
58242;SDS011;50118;53.232;8.252;2024-02-21T09:11:01;34.72;;;16.60;;
58242;SDS011;50118;53.232;8.252;2024-02-21T09:13:26;30.75;;;16.40;;
58242;SDS011;50118;53.232;8.252;2024-02-21T09:15:52;30.30;;;15.85;;
58242;SDS011;50118;53.232;8.252;2024-02-21T09:18:18;35.17;;;16.73;;
58242;SDS011;50118;53.232;8.252;2024-02-21T09:20:44;26.80;;;15.27;;
58242;SDS011;50118;53.232;8.252;2024-02-21T09:23:13;31.75;;;15.23;;
58242;SDS011;50118;53.232;8.252;2024-02-21T09:25:39;28.58;;;15.43;;
58242;SDS011;50118;53.232;8.252;2024-02-21T09:28:05;30.27;;;15.73;;
58242;SDS011;50118;53.232;8.252;2024-02-21T09:30:31;29.30;;;15.48;;
58242;SDS011;50118;53.232;8.252;2024-02-21T09:32:57;29.55;;;15.70;;
58242;SDS011;50118;53.232;8.252;2024-02-21T09:35:27;28.60;;;15.85;;
58242;SDS011;50118;53.232;8.252;2024-02-21T09:37:53;30.00;;;15.65;;
58242;SDS011;50118;53.232;8.252;2024-02-21T09:40:19;28.75;;;15.73;;
58242;SDS011;50118;53.232;8.252;2024-02-21T09:42:46;30.08;;;16.00;;
58242;SDS011;50118;53.232;8.252;2024-02-21T09:45:20;33.17;;;16.10;;
58242;SDS011;50118;53.232;8.252;2024-02-21T09:50:31;27.67;;;16.25;;
58242;SDS011;50118;53.232;8.252;2024-02-21T09:53:01;28.13;;;15.95;;
58242;SDS011;50118;53.232;8.252;2024-02-21T09:55:31;33.92;;;16.80;;
58242;SDS011;50118;53.232;8.252;2024-02-21T09:57:59;28.05;;;15.73;;
58242;SDS011;50118;53.232;8.252;2024-02-21T10:00:37;28.52;;;16.40;;
58242;SDS011;50118;53.232;8.252;2024-02-21T10:03:32;28.52;;;16.02;;
58242;SDS011;50118;53.232;8.252;2024-02-21T10:06:21;32.38;;;16.80;;
58242;SDS011;50118;53.232;8.252;2024-02-21T10:08:53;33.40;;;18.00;;
58242;SDS011;50118;53.232;8.252;2024-02-21T10:11:24;34.00;;;17.48;;
58242;SDS011;50118;53.232;8.252;2024-02-21T10:13:50;30.98;;;17.95;;
58242;SDS011;50118;53.232;8.252;2024-02-21T10:16:16;31.05;;;17.90;;
58242;SDS011;50118;53.232;8.252;2024-02-21T10:18:42;32.15;;;17.83;;
58242;SDS011;50118;53.232;8.252;2024-02-21T10:21:08;38.25;;;17.75;;
58242;SDS011;50118;53.232;8.252;2024-02-21T10:23:43;29.58;;;17.05;;
58242;SDS011;50118;53.232;8.252;2024-02-21T10:26:14;36.92;;;17.80;;
58242;SDS011;50118;53.232;8.252;2024-02-21T10:28:40;31.50;;;17.10;;
58242;SDS011;50118;53.232;8.252;2024-02-21T10:31:08;28.45;;;17.45;;
58242;SDS011;50118;53.232;8.252;2024-02-21T10:33:34;28.98;;;17.45;;
58242;SDS011;50118;53.232;8.252;2024-02-21T10:36:09;29.58;;;17.15;;
58242;SDS011;50118;53.232;8.252;2024-02-21T10:38:39;30.85;;;16.95;;
58242;SDS011;50118;53.232;8.252;2024-02-21T10:41:07;31.80;;;17.52;;
58242;SDS011;50118;53.232;8.252;2024-02-21T10:43:39;25.92;;;16.27;;
58242;SDS011;50118;53.232;8.252;2024-02-21T10:46:09;26.73;;;16.52;;
58242;SDS011;50118;53.232;8.252;2024-02-21T10:48:45;27.77;;;16.75;;
58242;SDS011;50118;53.232;8.252;2024-02-21T10:51:17;29.50;;;17.27;;
58242;SDS011;50118;53.232;8.252;2024-02-21T10:56:31;30.02;;;16.58;;
58242;SDS011;50118;53.232;8.252;2024-02-21T10:59:01;25.88;;;15.52;;
58242;SDS011;50118;53.232;8.252;2024-02-21T11:01:28;28.75;;;16.73;;
58242;SDS011;50118;53.232;8.252;2024-02-21T11:03:56;25.67;;;16.00;;
58242;SDS011;50118;53.232;8.252;2024-02-21T11:06:25;23.73;;;15.70;;
58242;SDS011;50118;53.232;8.252;2024-02-21T11:09:05;25.45;;;14.93;;
58242;SDS011;50118;53.232;8.252;2024-02-21T11:11:35;24.92;;;15.73;;
58242;SDS011;50118;53.232;8.252;2024-02-21T11:16:41;22.20;;;15.20;;
58242;SDS011;50118;53.232;8.252;2024-02-21T11:21:53;22.30;;;14.63;;
58242;SDS011;50118;53.232;8.252;2024-02-21T11:24:29;21.23;;;14.25;;
58242;SDS011;50118;53.232;8.252;2024-02-21T11:26:56;23.85;;;14.82;;
58242;SDS011;50118;53.232;8.252;2024-02-21T11:29:45;25.08;;;14.27;;
58242;SDS011;50118;53.232;8.252;2024-02-21T11:32:16;22.58;;;13.85;;
58242;SDS011;50118;53.232;8.252;2024-02-21T11:37:29;22.40;;;13.65;;
58242;SDS011;50118;53.232;8.252;2024-02-21T11:39:55;21.35;;;13.38;;
58242;SDS011;50118;53.232;8.252;2024-02-21T11:42:21;21.40;;;13.65;;
58242;SDS011;50118;53.232;8.252;2024-02-21T11:44:47;20.08;;;12.65;;
58242;SDS011;50118;53.232;8.252;2024-02-21T11:47:13;17.80;;;12.55;;
58242;SDS011;50118;53.232;8.252;2024-02-21T11:49:43;18.83;;;12.68;;
58242;SDS011;50118;53.232;8.252;2024-02-21T11:52:14;19.45;;;11.70;;
58242;SDS011;50118;53.232;8.252;2024-02-21T11:54:44;18.92;;;11.63;;
58242;SDS011;50118;53.232;8.252;2024-02-21T11:57:09;18.65;;;11.07;;
58242;SDS011;50118;53.232;8.252;2024-02-21T11:59:36;19.35;;;11.55;;
58242;SDS011;50118;53.232;8.252;2024-02-21T12:02:02;19.30;;;11.55;;
58242;SDS011;50118;53.232;8.252;2024-02-21T12:04:28;18.40;;;11.38;;
58242;SDS011;50118;53.232;8.252;2024-02-21T12:06:56;18.75;;;11.25;;
58242;SDS011;50118;53.232;8.252;2024-02-21T12:09:23;17.00;;;11.23;;
58242;SDS011;50118;53.232;8.252;2024-02-21T12:12:05;21.23;;;10.93;;
58242;SDS011;50118;53.232;8.252;2024-02-21T12:14:31;18.77;;;10.17;;
58242;SDS011;50118;53.232;8.252;2024-02-21T12:16:58;16.67;;;10.63;;
58242;SDS011;50118;53.232;8.252;2024-02-21T12:19:25;16.98;;;9.85;;
58242;SDS011;50118;53.232;8.252;2024-02-21T12:21:51;15.13;;;9.35;;
58242;SDS011;50118;53.232;8.252;2024-02-21T12:24:21;16.23;;;9.70;;
58242;SDS011;50118;53.232;8.252;2024-02-21T12:26:53;14.38;;;9.23;;
58242;SDS011;50118;53.232;8.252;2024-02-21T12:29:20;15.73;;;9.98;;
58242;SDS011;50118;53.232;8.252;2024-02-21T12:31:46;14.40;;;9.05;;
58242;SDS011;50118;53.232;8.252;2024-02-21T12:34:12;14.40;;;8.90;;
58242;SDS011;50118;53.232;8.252;2024-02-21T12:36:41;14.27;;;8.40;;
58242;SDS011;50118;53.232;8.252;2024-02-21T12:39:08;15.80;;;8.93;;
58242;SDS011;50118;53.232;8.252;2024-02-21T12:41:35;13.98;;;8.68;;
58242;SDS011;50118;53.232;8.252;2024-02-21T12:44:03;13.95;;;8.30;;
58242;SDS011;50118;53.232;8.252;2024-02-21T12:46:36;13.45;;;8.38;;
58242;SDS011;50118;53.232;8.252;2024-02-21T12:49:02;14.35;;;8.60;;
58242;SDS011;50118;53.232;8.252;2024-02-21T12:51:28;14.25;;;8.30;;
58242;SDS011;50118;53.232;8.252;2024-02-21T12:53:54;12.98;;;8.00;;
58242;SDS011;50118;53.232;8.252;2024-02-21T12:56:20;14.45;;;7.82;;
58242;SDS011;50118;53.232;8.252;2024-02-21T12:58:46;14.82;;;7.75;;
58242;SDS011;50118;53.232;8.252;2024-02-21T13:01:11;13.15;;;6.90;;
58242;SDS011;50118;53.232;8.252;2024-02-21T13:03:37;14.60;;;7.05;;
58242;SDS011;50118;53.232;8.252;2024-02-21T13:06:03;11.75;;;6.65;;
58242;SDS011;50118;53.232;8.252;2024-02-21T13:08:29;13.95;;;6.97;;
58242;SDS011;50118;53.232;8.252;2024-02-21T13:10:54;9.50;;;6.45;;
58242;SDS011;50118;53.232;8.252;2024-02-21T13:13:20;11.70;;;6.75;;
58242;SDS011;50118;53.232;8.252;2024-02-21T13:15:45;12.57;;;6.43;;
58242;SDS011;50118;53.232;8.252;2024-02-21T13:18:11;13.40;;;6.35;;
58242;SDS011;50118;53.232;8.252;2024-02-21T13:20:36;11.50;;;6.80;;
58242;SDS011;50118;53.232;8.252;2024-02-21T13:23:02;12.68;;;6.63;;
58242;SDS011;50118;53.232;8.252;2024-02-21T13:25:28;11.93;;;6.43;;
58242;SDS011;50118;53.232;8.252;2024-02-21T13:27:54;14.85;;;6.57;;
58242;SDS011;50118;53.232;8.252;2024-02-21T13:30:19;12.60;;;6.45;;
58242;SDS011;50118;53.232;8.252;2024-02-21T13:32:45;11.38;;;6.55;;
58242;SDS011;50118;53.232;8.252;2024-02-21T13:35:13;10.60;;;6.78;;
58242;SDS011;50118;53.232;8.252;2024-02-21T13:37:39;11.40;;;6.45;;
58242;SDS011;50118;53.232;8.252;2024-02-21T13:40:08;13.60;;;6.75;;
58242;SDS011;50118;53.232;8.252;2024-02-21T13:42:34;12.38;;;6.55;;
58242;SDS011;50118;53.232;8.252;2024-02-21T13:45:00;11.15;;;6.38;;
58242;SDS011;50118;53.232;8.252;2024-02-21T13:47:26;9.23;;;6.40;;
58242;SDS011;50118;53.232;8.252;2024-02-21T13:49:52;12.27;;;6.82;;
58242;SDS011;50118;53.232;8.252;2024-02-21T13:52:17;10.10;;;6.43;;
58242;SDS011;50118;53.232;8.252;2024-02-21T13:54:45;14.23;;;7.30;;
58242;SDS011;50118;53.232;8.252;2024-02-21T13:57:11;13.65;;;6.88;;
58242;SDS011;50118;53.232;8.252;2024-02-21T13:59:36;10.15;;;6.20;;
58242;SDS011;50118;53.232;8.252;2024-02-21T14:02:02;13.23;;;6.63;;
58242;SDS011;50118;53.232;8.252;2024-02-21T14:04:28;9.15;;;6.18;;
58242;SDS011;50118;53.232;8.252;2024-02-21T14:06:55;9.63;;;5.93;;
58242;SDS011;50118;53.232;8.252;2024-02-21T14:09:20;8.38;;;5.40;;
58242;SDS011;50118;53.232;8.252;2024-02-21T14:11:46;9.32;;;5.40;;
58242;SDS011;50118;53.232;8.252;2024-02-21T14:14:12;10.15;;;5.53;;
58242;SDS011;50118;53.232;8.252;2024-02-21T14:16:40;8.73;;;5.25;;
58242;SDS011;50118;53.232;8.252;2024-02-21T14:19:05;8.57;;;5.15;;
58242;SDS011;50118;53.232;8.252;2024-02-21T14:21:32;7.47;;;5.00;;
58242;SDS011;50118;53.232;8.252;2024-02-21T14:23:57;9.60;;;5.22;;
58242;SDS011;50118;53.232;8.252;2024-02-21T14:26:23;10.07;;;5.50;;
58242;SDS011;50118;53.232;8.252;2024-02-21T14:28:49;8.18;;;5.78;;
58242;SDS011;50118;53.232;8.252;2024-02-21T14:31:15;9.95;;;6.43;;
58242;SDS011;50118;53.232;8.252;2024-02-21T14:33:40;11.05;;;7.57;;
58242;SDS011;50118;53.232;8.252;2024-02-21T14:36:06;12.20;;;8.30;;
58242;SDS011;50118;53.232;8.252;2024-02-21T14:38:32;11.32;;;8.30;;